sensor_id;sensor_type;location;lat;lon;timestamp;pressure;altitude;pressure_sealevel;temperature;humidity
35848;BME280;22332;51.954;20.118;2023-07-08T00:01:10;100792.05;;;13.76;56.60
35848;BME280;22332;51.954;20.118;2023-07-08T00:04:24;100794.30;;;13.72;56.95
35848;BME280;22332;51.954;20.118;2023-07-08T00:07:31;100792.39;;;13.57;56.89
35848;BME280;22332;51.954;20.118;2023-07-08T00:10:36;100789.59;;;13.48;56.94
35848;BME280;22332;51.954;20.118;2023-07-08T00:13:42;100786.10;;;13.46;56.91
35848;BME280;22332;51.954;20.118;2023-07-08T00:16:47;100783.94;;;13.44;56.94
35848;BME280;22332;51.954;20.118;2023-07-08T00:19:54;100784.00;;;13.44;57.08
35848;BME280;22332;51.954;20.118;2023-07-08T00:22:59;100787.91;;;13.40;57.05
35848;BME280;22332;51.954;20.118;2023-07-08T00:26:11;100786.41;;;13.38;57.28
35848;BME280;22332;51.954;20.118;2023-07-08T00:29:18;100790.77;;;13.31;57.52
35848;BME280;22332;51.954;20.118;2023-07-08T00:32:24;100793.34;;;13.24;57.65
35848;BME280;22332;51.954;20.118;2023-07-08T00:35:33;100792.15;;;13.23;57.66
35848;BME280;22332;51.954;20.118;2023-07-08T00:38:39;100793.58;;;13.21;57.68
35848;BME280;22332;51.954;20.118;2023-07-08T00:41:49;100792.72;;;13.19;57.73
35848;BME280;22332;51.954;20.118;2023-07-08T00:44:56;100791.65;;;13.17;57.92
35848;BME280;22332;51.954;20.118;2023-07-08T00:48:07;100789.73;;;13.15;58.02
35848;BME280;22332;51.954;20.118;2023-07-08T00:51:14;100790.14;;;13.13;58.10
35848;BME280;22332;51.954;20.118;2023-07-08T00:54:20;100791.72;;;13.10;58.18
35848;BME280;22332;51.954;20.118;2023-07-08T00:57:28;100789.71;;;13.08;58.28
35848;BME280;22332;51.954;20.118;2023-07-08T01:00:35;100784.32;;;13.05;58.43
35848;BME280;22332;51.954;20.118;2023-07-08T01:03:45;100784.30;;;13.04;58.33
35848;BME280;22332;51.954;20.118;2023-07-08T01:06:56;100782.05;;;13.01;58.44
35848;BME280;22332;51.954;20.118;2023-07-08T01:10:06;100784.31;;;12.99;58.58
35848;BME280;22332;51.954;20.118;2023-07-08T01:13:17;100780.73;;;12.94;58.63
35848;BME280;22332;51.954;20.118;2023-07-08T01:16:23;100780.81;;;12.88;58.84
35848;BME280;22332;51.954;20.118;2023-07-08T01:19:29;100783.81;;;12.87;58.88
35848;BME280;22332;51.954;20.118;2023-07-08T01:22:38;100778.45;;;12.91;58.96
35848;BME280;22332;51.954;20.118;2023-07-08T01:25:45;100776.85;;;12.96;58.91
35848;BME280;22332;51.954;20.118;2023-07-08T01:28:51;100775.25;;;12.96;58.96
35848;BME280;22332;51.954;20.118;2023-07-08T01:31:57;100778.47;;;12.96;59.05
35848;BME280;22332;51.954;20.118;2023-07-08T01:35:08;100775.33;;;12.95;59.04
35848;BME280;22332;51.954;20.118;2023-07-08T01:38:16;100776.02;;;12.93;59.29
35848;BME280;22332;51.954;20.118;2023-07-08T01:41:22;100774.30;;;12.87;59.48
35848;BME280;22332;51.954;20.118;2023-07-08T01:44:30;100770.80;;;12.80;59.40
35848;BME280;22332;51.954;20.118;2023-07-08T01:47:36;100770.05;;;12.75;59.39
35848;BME280;22332;51.954;20.118;2023-07-08T01:50:44;100769.10;;;12.72;59.43
35848;BME280;22332;51.954;20.118;2023-07-08T01:53:51;100773.64;;;12.64;59.52
35848;BME280;22332;51.954;20.118;2023-07-08T01:56:57;100778.84;;;12.58;59.76
35848;BME280;22332;51.954;20.118;2023-07-08T02:00:06;100781.58;;;12.56;59.63
35848;BME280;22332;51.954;20.118;2023-07-08T02:03:17;100775.56;;;12.53;59.65
35848;BME280;22332;51.954;20.118;2023-07-08T02:06:23;100781.58;;;12.50;59.62
35848;BME280;22332;51.954;20.118;2023-07-08T02:09:29;100777.92;;;12.48;60.03
35848;BME280;22332;51.954;20.118;2023-07-08T02:12:34;100777.48;;;12.45;59.96
35848;BME280;22332;51.954;20.118;2023-07-08T02:15:41;100779.41;;;12.44;59.88
35848;BME280;22332;51.954;20.118;2023-07-08T02:18:46;100779.79;;;12.44;59.83
35848;BME280;22332;51.954;20.118;2023-07-08T02:21:52;100777.59;;;12.39;60.07
35848;BME280;22332;51.954;20.118;2023-07-08T02:24:57;100776.05;;;12.31;60.13
35848;BME280;22332;51.954;20.118;2023-07-08T02:28:03;100780.06;;;12.28;60.14
35848;BME280;22332;51.954;20.118;2023-07-08T02:31:09;100778.23;;;12.29;60.39
35848;BME280;22332;51.954;20.118;2023-07-08T02:34:14;100780.27;;;12.32;60.30
35848;BME280;22332;51.954;20.118;2023-07-08T02:37:20;100777.27;;;12.29;60.25
35848;BME280;22332;51.954;20.118;2023-07-08T02:40:26;100778.73;;;12.29;60.38
35848;BME280;22332;51.954;20.118;2023-07-08T02:43:32;100776.33;;;12.26;60.45
35848;BME280;22332;51.954;20.118;2023-07-08T02:46:37;100775.92;;;12.27;60.66
35848;BME280;22332;51.954;20.118;2023-07-08T02:49:44;100774.85;;;12.28;60.72
35848;BME280;22332;51.954;20.118;2023-07-08T02:52:50;100765.92;;;12.28;60.67
35848;BME280;22332;51.954;20.118;2023-07-08T02:55:55;100769.44;;;12.26;60.90
35848;BME280;22332;51.954;20.118;2023-07-08T02:59:01;100764.95;;;12.20;60.93
35848;BME280;22332;51.954;20.118;2023-07-08T03:02:06;100766.73;;;12.23;60.85
35848;BME280;22332;51.954;20.118;2023-07-08T03:05:12;100764.02;;;12.24;60.95
35848;BME280;22332;51.954;20.118;2023-07-08T03:08:17;100763.20;;;12.27;60.94
35848;BME280;22332;51.954;20.118;2023-07-08T03:11:23;100763.45;;;12.34;61.00
35848;BME280;22332;51.954;20.118;2023-07-08T03:14:28;100768.41;;;12.37;60.99
35848;BME280;22332;51.954;20.118;2023-07-08T03:17:34;100773.13;;;12.44;61.17
35848;BME280;22332;51.954;20.118;2023-07-08T03:20:42;100776.22;;;12.52;61.21
35848;BME280;22332;51.954;20.118;2023-07-08T03:23:51;100778.87;;;12.72;61.24
35848;BME280;22332;51.954;20.118;2023-07-08T03:26:56;100775.71;;;12.95;61.28
35848;BME280;22332;51.954;20.118;2023-07-08T03:30:07;100780.02;;;13.19;61.02
35848;BME280;22332;51.954;20.118;2023-07-08T03:33:13;100778.56;;;13.48;61.06
35848;BME280;22332;51.954;20.118;2023-07-08T03:36:19;100780.58;;;13.77;60.96
35848;BME280;22332;51.954;20.118;2023-07-08T03:39:28;100784.69;;;14.07;60.88
35848;BME280;22332;51.954;20.118;2023-07-08T03:42:35;100785.67;;;14.40;60.80
35848;BME280;22332;51.954;20.118;2023-07-08T03:45:41;100789.30;;;14.71;60.67
35848;BME280;22332;51.954;20.118;2023-07-08T03:48:48;100786.81;;;14.97;60.82
35848;BME280;22332;51.954;20.118;2023-07-08T03:51:55;100785.61;;;15.26;60.45
35848;BME280;22332;51.954;20.118;2023-07-08T03:55:00;100788.23;;;15.53;60.40
35848;BME280;22332;51.954;20.118;2023-07-08T03:58:08;100787.09;;;15.80;60.36
35848;BME280;22332;51.954;20.118;2023-07-08T04:01:17;100783.31;;;16.07;60.33
35848;BME280;22332;51.954;20.118;2023-07-08T04:04:24;100776.55;;;16.35;60.20
35848;BME280;22332;51.954;20.118;2023-07-08T04:07:31;100781.56;;;16.57;60.21
35848;BME280;22332;51.954;20.118;2023-07-08T04:10:36;100778.73;;;16.87;60.04
35848;BME280;22332;51.954;20.118;2023-07-08T04:13:42;100777.41;;;17.13;59.94
35848;BME280;22332;51.954;20.118;2023-07-08T04:16:50;100772.80;;;17.32;59.94
35848;BME280;22332;51.954;20.118;2023-07-08T04:19:56;100773.77;;;17.53;59.94
35848;BME280;22332;51.954;20.118;2023-07-08T04:23:01;100775.50;;;17.77;59.85
35848;BME280;22332;51.954;20.118;2023-07-08T04:26:09;100770.34;;;17.96;59.85
35848;BME280;22332;51.954;20.118;2023-07-08T04:29:16;100764.65;;;18.18;59.80
35848;BME280;22332;51.954;20.118;2023-07-08T04:32:22;100767.27;;;18.37;59.83
35848;BME280;22332;51.954;20.118;2023-07-08T04:35:29;100772.99;;;18.56;59.89
35848;BME280;22332;51.954;20.118;2023-07-08T04:38:34;100770.84;;;18.75;59.88
35848;BME280;22332;51.954;20.118;2023-07-08T04:41:41;100767.98;;;18.93;59.93
35848;BME280;22332;51.954;20.118;2023-07-08T04:44:48;100768.02;;;19.13;59.92
35848;BME280;22332;51.954;20.118;2023-07-08T04:47:54;100763.48;;;19.31;59.93
35848;BME280;22332;51.954;20.118;2023-07-08T04:50:59;100763.67;;;19.49;59.96
35848;BME280;22332;51.954;20.118;2023-07-08T04:54:05;100762.07;;;19.66;59.98
35848;BME280;22332;51.954;20.118;2023-07-08T04:57:11;100760.40;;;19.84;60.14
35848;BME280;22332;51.954;20.118;2023-07-08T05:00:18;100760.05;;;20.04;59.88
35848;BME280;22332;51.954;20.118;2023-07-08T05:03:23;100759.27;;;20.22;60.00
35848;BME280;22332;51.954;20.118;2023-07-08T05:06:29;100762.31;;;20.39;59.61
35848;BME280;22332;51.954;20.118;2023-07-08T05:09:35;100757.17;;;20.55;59.67
35848;BME280;22332;51.954;20.118;2023-07-08T05:12:40;100758.92;;;20.66;59.49
35848;BME280;22332;51.954;20.118;2023-07-08T05:15:46;100756.59;;;20.85;59.17
35848;BME280;22332;51.954;20.118;2023-07-08T05:18:53;100753.24;;;21.12;58.87
35848;BME280;22332;51.954;20.118;2023-07-08T05:21:58;100749.89;;;21.38;58.48
35848;BME280;22332;51.954;20.118;2023-07-08T05:25:05;100744.69;;;21.59;58.15
35848;BME280;22332;51.954;20.118;2023-07-08T05:28:10;100745.47;;;21.77;57.98
35848;BME280;22332;51.954;20.118;2023-07-08T05:31:16;100746.44;;;21.96;57.76
35848;BME280;22332;51.954;20.118;2023-07-08T05:34:22;100747.72;;;22.14;57.52
35848;BME280;22332;51.954;20.118;2023-07-08T05:37:27;100748.42;;;22.28;57.30
35848;BME280;22332;51.954;20.118;2023-07-08T05:40:33;100747.77;;;22.44;57.20
35848;BME280;22332;51.954;20.118;2023-07-08T05:43:39;100745.04;;;22.58;56.79
35848;BME280;22332;51.954;20.118;2023-07-08T05:46:44;100741.90;;;22.64;55.92
35848;BME280;22332;51.954;20.118;2023-07-08T05:49:50;100735.56;;;22.67;56.15
35848;BME280;22332;51.954;20.118;2023-07-08T05:52:55;100735.55;;;22.78;56.13
35848;BME280;22332;51.954;20.118;2023-07-08T05:56:01;100727.22;;;22.87;55.91
35848;BME280;22332;51.954;20.118;2023-07-08T05:59:07;100728.69;;;22.92;55.58
35848;BME280;22332;51.954;20.118;2023-07-08T06:02:13;100729.48;;;22.97;55.33
35848;BME280;22332;51.954;20.118;2023-07-08T06:05:19;100730.98;;;22.98;54.99
35848;BME280;22332;51.954;20.118;2023-07-08T06:08:24;100728.16;;;23.00;55.05
35848;BME280;22332;51.954;20.118;2023-07-08T06:11:30;100727.56;;;23.02;54.74
35848;BME280;22332;51.954;20.118;2023-07-08T06:14:36;100730.27;;;23.05;54.43
35848;BME280;22332;51.954;20.118;2023-07-08T06:17:42;100727.74;;;23.01;54.11
35848;BME280;22332;51.954;20.118;2023-07-08T06:20:53;100723.84;;;23.01;54.27
35848;BME280;22332;51.954;20.118;2023-07-08T06:23:59;100722.48;;;23.03;54.02
35848;BME280;22332;51.954;20.118;2023-07-08T06:27:06;100725.42;;;23.02;54.04
35848;BME280;22332;51.954;20.118;2023-07-08T06:30:12;100726.06;;;23.03;53.83
35848;BME280;22332;51.954;20.118;2023-07-08T06:33:18;100722.98;;;22.98;52.89
35848;BME280;22332;51.954;20.118;2023-07-08T06:36:23;100723.27;;;22.96;53.35
35848;BME280;22332;51.954;20.118;2023-07-08T06:39:29;100718.95;;;22.99;52.95
35848;BME280;22332;51.954;20.118;2023-07-08T06:42:34;100716.77;;;22.99;52.06
35848;BME280;22332;51.954;20.118;2023-07-08T10:41:54;100651.20;;;27.70;32.21
35848;BME280;22332;51.954;20.118;2023-07-08T10:45:11;100650.88;;;27.69;31.05
35848;BME280;22332;51.954;20.118;2023-07-08T10:48:27;100651.55;;;27.70;32.50
35848;BME280;22332;51.954;20.118;2023-07-08T10:51:43;100644.16;;;27.72;32.23
35848;BME280;22332;51.954;20.118;2023-07-08T10:55:01;100642.81;;;27.69;31.36
35848;BME280;22332;51.954;20.118;2023-07-08T10:58:36;100639.25;;;27.74;31.85
35848;BME280;22332;51.954;20.118;2023-07-08T11:01:56;100641.09;;;27.66;30.50
35848;BME280;22332;51.954;20.118;2023-07-08T11:05:16;100640.27;;;27.53;31.39
35848;BME280;22332;51.954;20.118;2023-07-08T11:08:31;100642.58;;;27.63;30.59
35848;BME280;22332;51.954;20.118;2023-07-08T11:11:45;100635.81;;;27.77;30.27
35848;BME280;22332;51.954;20.118;2023-07-08T11:14:51;100629.59;;;27.88;30.08
35848;BME280;22332;51.954;20.118;2023-07-08T11:18:03;100630.85;;;27.92;30.69
35848;BME280;22332;51.954;20.118;2023-07-08T11:21:14;100626.61;;;28.02;31.04
35848;BME280;22332;51.954;20.118;2023-07-08T11:24:26;100626.03;;;28.04;29.82
35848;BME280;22332;51.954;20.118;2023-07-08T11:27:37;100618.67;;;27.89;29.79
35848;BME280;22332;51.954;20.118;2023-07-08T11:30:49;100618.89;;;27.92;30.37
35848;BME280;22332;51.954;20.118;2023-07-08T11:33:56;100617.74;;;27.98;30.40
35848;BME280;22332;51.954;20.118;2023-07-08T11:37:03;100616.75;;;27.97;29.33
35848;BME280;22332;51.954;20.118;2023-07-08T11:40:19;100612.06;;;27.95;30.49
35848;BME280;22332;51.954;20.118;2023-07-08T11:43:28;100610.09;;;28.03;30.54
35848;BME280;22332;51.954;20.118;2023-07-08T11:46:55;100607.34;;;28.13;30.51
35848;BME280;22332;51.954;20.118;2023-07-08T11:50:02;100608.02;;;28.22;29.50
35848;BME280;22332;51.954;20.118;2023-07-08T11:53:11;100615.20;;;28.20;29.36
35848;BME280;22332;51.954;20.118;2023-07-08T11:56:26;100616.42;;;28.10;29.24
35848;BME280;22332;51.954;20.118;2023-07-08T11:59:37;100616.44;;;28.06;29.32
35848;BME280;22332;51.954;20.118;2023-07-08T12:02:55;100609.98;;;28.01;28.40
35848;BME280;22332;51.954;20.118;2023-07-08T12:06:01;100597.17;;;27.98;30.06
35848;BME280;22332;51.954;20.118;2023-07-08T12:09:22;100594.43;;;28.06;29.99
35848;BME280;22332;51.954;20.118;2023-07-08T12:12:32;100597.33;;;28.05;29.44
35848;BME280;22332;51.954;20.118;2023-07-08T12:15:38;100592.77;;;28.05;29.29
35848;BME280;22332;51.954;20.118;2023-07-08T12:18:44;100594.83;;;28.07;28.76
35848;BME280;22332;51.954;20.118;2023-07-08T12:21:51;100594.73;;;28.04;28.57
35848;BME280;22332;51.954;20.118;2023-07-08T12:24:57;100597.33;;;28.04;28.00
35848;BME280;22332;51.954;20.118;2023-07-08T12:28:08;100599.34;;;28.08;28.85
35848;BME280;22332;51.954;20.118;2023-07-08T12:31:17;100594.04;;;28.18;29.27
35848;BME280;22332;51.954;20.118;2023-07-08T12:34:25;100582.57;;;28.24;28.32
35848;BME280;22332;51.954;20.118;2023-07-08T12:37:31;100581.09;;;28.24;28.82
35848;BME280;22332;51.954;20.118;2023-07-08T12:40:37;100577.94;;;28.29;28.00
35848;BME280;22332;51.954;20.118;2023-07-08T12:43:43;100577.22;;;28.21;27.75
35848;BME280;22332;51.954;20.118;2023-07-08T12:46:52;100574.86;;;28.21;28.04
35848;BME280;22332;51.954;20.118;2023-07-08T12:49:58;100573.01;;;28.22;27.66
35848;BME280;22332;51.954;20.118;2023-07-08T12:53:05;100561.36;;;28.23;28.36
35848;BME280;22332;51.954;20.118;2023-07-08T12:56:13;100562.46;;;28.29;27.91
35848;BME280;22332;51.954;20.118;2023-07-08T12:59:21;100550.50;;;28.30;28.52
35848;BME280;22332;51.954;20.118;2023-07-08T13:02:30;100557.84;;;28.28;27.77
35848;BME280;22332;51.954;20.118;2023-07-08T13:05:36;100560.08;;;28.26;27.07
35848;BME280;22332;51.954;20.118;2023-07-08T13:08:43;100550.48;;;28.27;28.02
35848;BME280;22332;51.954;20.118;2023-07-08T13:11:49;100551.00;;;28.31;28.17
35848;BME280;22332;51.954;20.118;2023-07-08T13:14:58;100557.35;;;28.34;27.75
35848;BME280;22332;51.954;20.118;2023-07-08T13:18:05;100542.55;;;28.33;27.77
35848;BME280;22332;51.954;20.118;2023-07-08T13:21:13;100546.05;;;28.29;27.50
35848;BME280;22332;51.954;20.118;2023-07-08T13:24:20;100545.27;;;28.26;28.08
35848;BME280;22332;51.954;20.118;2023-07-08T13:27:26;100548.04;;;28.25;26.88
35848;BME280;22332;51.954;20.118;2023-07-08T13:30:33;100544.84;;;28.05;27.21
35848;BME280;22332;51.954;20.118;2023-07-08T13:33:43;100542.69;;;27.96;27.37
35848;BME280;22332;51.954;20.118;2023-07-08T13:36:51;100538.29;;;27.86;27.63
35848;BME280;22332;51.954;20.118;2023-07-08T13:39:57;100537.15;;;27.88;27.32
35848;BME280;22332;51.954;20.118;2023-07-08T13:43:06;100532.78;;;27.94;28.09
35848;BME280;22332;51.954;20.118;2023-07-08T13:46:33;100533.72;;;28.07;28.12
35848;BME280;22332;51.954;20.118;2023-07-08T13:49:44;100525.55;;;28.16;27.91
35848;BME280;22332;51.954;20.118;2023-07-08T13:52:55;100533.34;;;28.23;27.07
35848;BME280;22332;51.954;20.118;2023-07-08T13:56:03;100530.32;;;28.16;26.73
35848;BME280;22332;51.954;20.118;2023-07-08T13:59:17;100521.19;;;28.22;27.87
35848;BME280;22332;51.954;20.118;2023-07-08T14:02:26;100520.27;;;28.30;27.33
35848;BME280;22332;51.954;20.118;2023-07-08T14:05:32;100524.89;;;28.34;26.97
35848;BME280;22332;51.954;20.118;2023-07-08T14:08:37;100520.17;;;28.34;27.55
35848;BME280;22332;51.954;20.118;2023-07-08T14:11:46;100513.06;;;28.36;27.06
35848;BME280;22332;51.954;20.118;2023-07-08T14:14:52;100509.15;;;28.36;27.51
35848;BME280;22332;51.954;20.118;2023-07-08T14:17:57;100503.68;;;28.39;27.71
35848;BME280;22332;51.954;20.118;2023-07-08T14:21:03;100504.67;;;28.40;26.94
35848;BME280;22332;51.954;20.118;2023-07-08T14:24:14;100504.17;;;28.40;26.76
35848;BME280;22332;51.954;20.118;2023-07-08T14:27:19;100505.83;;;28.41;27.02
35848;BME280;22332;51.954;20.118;2023-07-08T14:30:25;100504.73;;;28.42;26.72
35848;BME280;22332;51.954;20.118;2023-07-08T14:33:31;100496.52;;;28.43;27.13
35848;BME280;22332;51.954;20.118;2023-07-08T14:36:36;100495.54;;;28.45;27.19
35848;BME280;22332;51.954;20.118;2023-07-08T14:39:42;100493.90;;;28.48;26.95
35848;BME280;22332;51.954;20.118;2023-07-08T14:42:48;100488.32;;;28.42;27.27
35848;BME280;22332;51.954;20.118;2023-07-08T14:45:57;100493.09;;;28.40;27.10
35848;BME280;22332;51.954;20.118;2023-07-08T14:49:11;100490.54;;;28.36;27.18
35848;BME280;22332;51.954;20.118;2023-07-08T14:52:19;100490.64;;;28.33;27.06
35848;BME280;22332;51.954;20.118;2023-07-08T14:55:25;100491.83;;;28.30;27.10
35848;BME280;22332;51.954;20.118;2023-07-08T14:58:32;100486.79;;;28.32;27.43
35848;BME280;22332;51.954;20.118;2023-07-08T15:01:38;100484.05;;;28.33;27.18
35848;BME280;22332;51.954;20.118;2023-07-08T15:04:44;100479.98;;;28.32;27.25
35848;BME280;22332;51.954;20.118;2023-07-08T15:07:52;100476.92;;;28.33;27.42
35848;BME280;22332;51.954;20.118;2023-07-08T15:10:57;100479.64;;;28.29;26.88
35848;BME280;22332;51.954;20.118;2023-07-08T15:14:08;100475.33;;;28.25;26.59
35848;BME280;22332;51.954;20.118;2023-07-08T15:17:16;100465.67;;;28.23;27.12
35848;BME280;22332;51.954;20.118;2023-07-08T15:20:22;100464.86;;;28.26;27.20
35848;BME280;22332;51.954;20.118;2023-07-08T15:23:28;100467.46;;;28.30;27.40
35848;BME280;22332;51.954;20.118;2023-07-08T15:26:33;100466.21;;;28.31;26.94
35848;BME280;22332;51.954;20.118;2023-07-08T15:29:39;100461.77;;;28.32;27.36
35848;BME280;22332;51.954;20.118;2023-07-08T15:32:45;100463.56;;;28.31;27.29
35848;BME280;22332;51.954;20.118;2023-07-08T15:35:51;100460.97;;;28.27;26.93
35848;BME280;22332;51.954;20.118;2023-07-08T15:38:57;100460.25;;;28.25;27.27
35848;BME280;22332;51.954;20.118;2023-07-08T15:42:03;100457.05;;;28.23;27.19
35848;BME280;22332;51.954;20.118;2023-07-08T15:45:21;100458.31;;;28.21;27.01
35848;BME280;22332;51.954;20.118;2023-07-08T15:48:27;100458.38;;;28.14;27.02
35848;BME280;22332;51.954;20.118;2023-07-08T15:51:33;100456.58;;;28.14;27.09
35848;BME280;22332;51.954;20.118;2023-07-08T15:54:39;100453.98;;;28.14;27.03
35848;BME280;22332;51.954;20.118;2023-07-08T15:57:47;100455.23;;;28.12;26.85
35848;BME280;22332;51.954;20.118;2023-07-08T16:00:54;100452.09;;;28.10;26.77
35848;BME280;22332;51.954;20.118;2023-07-08T16:03:59;100448.25;;;28.09;26.87
35848;BME280;22332;51.954;20.118;2023-07-08T16:07:07;100446.27;;;28.07;27.01
35848;BME280;22332;51.954;20.118;2023-07-08T16:10:13;100450.81;;;28.06;27.23
35848;BME280;22332;51.954;20.118;2023-07-08T16:13:23;100453.50;;;28.06;27.01
35848;BME280;22332;51.954;20.118;2023-07-08T16:16:30;100456.05;;;28.02;27.05
35848;BME280;22332;51.954;20.118;2023-07-08T16:19:36;100448.47;;;27.99;26.93
35848;BME280;22332;51.954;20.118;2023-07-08T16:22:42;100448.19;;;28.00;27.32
35848;BME280;22332;51.954;20.118;2023-07-08T16:25:50;100448.63;;;27.99;27.21
35848;BME280;22332;51.954;20.118;2023-07-08T16:28:57;100444.36;;;27.96;26.60
35848;BME280;22332;51.954;20.118;2023-07-08T16:32:04;100445.95;;;27.93;27.40
35848;BME280;22332;51.954;20.118;2023-07-08T16:35:15;100443.79;;;27.91;27.45
35848;BME280;22332;51.954;20.118;2023-07-08T16:38:21;100441.21;;;27.86;27.28
35848;BME280;22332;51.954;20.118;2023-07-08T16:41:36;100441.30;;;27.83;27.33
35848;BME280;22332;51.954;20.118;2023-07-08T16:44:43;100441.94;;;27.79;27.44
35848;BME280;22332;51.954;20.118;2023-07-08T16:47:50;100438.45;;;27.76;27.48
35848;BME280;22332;51.954;20.118;2023-07-08T16:50:56;100436.22;;;27.71;27.29
35848;BME280;22332;51.954;20.118;2023-07-08T16:54:10;100434.33;;;27.66;27.27
35848;BME280;22332;51.954;20.118;2023-07-08T16:57:16;100437.85;;;27.62;27.49
35848;BME280;22332;51.954;20.118;2023-07-08T17:00:22;100436.26;;;27.60;27.56
35848;BME280;22332;51.954;20.118;2023-07-08T17:03:27;100436.16;;;27.58;27.86
35848;BME280;22332;51.954;20.118;2023-07-08T17:06:36;100436.96;;;27.54;27.98
35848;BME280;22332;51.954;20.118;2023-07-08T17:09:42;100437.20;;;27.50;27.92
35848;BME280;22332;51.954;20.118;2023-07-08T17:12:48;100434.89;;;27.46;28.15
35848;BME280;22332;51.954;20.118;2023-07-08T17:15:53;100431.88;;;27.42;28.22
35848;BME280;22332;51.954;20.118;2023-07-08T17:18:59;100433.97;;;27.37;28.12
35848;BME280;22332;51.954;20.118;2023-07-08T17:22:07;100431.52;;;27.32;28.37
35848;BME280;22332;51.954;20.118;2023-07-08T17:25:16;100430.98;;;27.27;28.55
35848;BME280;22332;51.954;20.118;2023-07-08T17:28:22;100430.30;;;27.22;28.67
35848;BME280;22332;51.954;20.118;2023-07-08T17:31:27;100433.17;;;27.19;28.77
35848;BME280;22332;51.954;20.118;2023-07-08T17:34:34;100436.73;;;27.19;28.90
35848;BME280;22332;51.954;20.118;2023-07-08T17:37:40;100436.44;;;27.22;29.20
35848;BME280;22332;51.954;20.118;2023-07-08T17:40:45;100436.41;;;27.27;29.23
35848;BME280;22332;51.954;20.118;2023-07-08T17:43:51;100435.05;;;27.35;29.30
35848;BME280;22332;51.954;20.118;2023-07-08T17:46:57;100441.45;;;27.47;29.52
35848;BME280;22332;51.954;20.118;2023-07-08T17:50:14;100436.63;;;27.58;29.61
35848;BME280;22332;51.954;20.118;2023-07-08T17:53:20;100442.02;;;27.69;29.47
35848;BME280;22332;51.954;20.118;2023-07-08T17:56:29;100440.73;;;27.80;29.59
35848;BME280;22332;51.954;20.118;2023-07-08T17:59:35;100441.42;;;27.91;29.89
35848;BME280;22332;51.954;20.118;2023-07-08T18:02:42;100442.42;;;27.99;30.40
35848;BME280;22332;51.954;20.118;2023-07-08T18:05:48;100441.19;;;28.05;30.94
35848;BME280;22332;51.954;20.118;2023-07-08T18:08:54;100438.86;;;28.06;31.18
35848;BME280;22332;51.954;20.118;2023-07-08T18:11:59;100437.22;;;28.08;31.50
35848;BME280;22332;51.954;20.118;2023-07-08T18:15:15;100439.35;;;28.06;31.86
35848;BME280;22332;51.954;20.118;2023-07-08T18:18:21;100442.02;;;28.03;32.15
35848;BME280;22332;51.954;20.118;2023-07-08T18:21:27;100440.39;;;27.97;32.34
35848;BME280;22332;51.954;20.118;2023-07-08T18:24:32;100440.81;;;27.90;32.53
35848;BME280;22332;51.954;20.118;2023-07-08T18:27:38;100442.94;;;27.79;32.80
35848;BME280;22332;51.954;20.118;2023-07-08T18:30:44;100441.38;;;27.64;33.17
35848;BME280;22332;51.954;20.118;2023-07-08T18:33:50;100443.71;;;27.47;33.49
35848;BME280;22332;51.954;20.118;2023-07-08T18:36:56;100443.65;;;27.24;33.87
35848;BME280;22332;51.954;20.118;2023-07-08T18:40:01;100445.28;;;26.88;34.13
35848;BME280;22332;51.954;20.118;2023-07-08T18:43:14;100450.00;;;26.44;34.61
35848;BME280;22332;51.954;20.118;2023-07-08T18:46:21;100453.41;;;26.04;35.01
35848;BME280;22332;51.954;20.118;2023-07-08T18:49:26;100457.07;;;25.69;35.46
35848;BME280;22332;51.954;20.118;2023-07-08T18:52:33;100460.09;;;25.31;35.94
35848;BME280;22332;51.954;20.118;2023-07-08T18:55:39;100457.95;;;24.94;36.42
35848;BME280;22332;51.954;20.118;2023-07-08T18:58:46;100458.86;;;24.61;36.95
35848;BME280;22332;51.954;20.118;2023-07-08T19:01:51;100462.23;;;24.27;37.28
35848;BME280;22332;51.954;20.118;2023-07-08T19:04:59;100466.92;;;23.95;37.61
35848;BME280;22332;51.954;20.118;2023-07-08T19:08:05;100471.94;;;23.66;38.20
35848;BME280;22332;51.954;20.118;2023-07-08T19:11:17;100475.43;;;23.39;38.34
35848;BME280;22332;51.954;20.118;2023-07-08T19:14:22;100481.11;;;23.19;38.93
35848;BME280;22332;51.954;20.118;2023-07-08T19:17:28;100480.91;;;23.13;39.34
35848;BME280;22332;51.954;20.118;2023-07-08T19:20:35;100483.59;;;23.02;39.35
35848;BME280;22332;51.954;20.118;2023-07-08T19:23:43;100484.54;;;22.82;39.77
35848;BME280;22332;51.954;20.118;2023-07-08T19:26:50;100484.27;;;22.66;40.12
35848;BME280;22332;51.954;20.118;2023-07-08T19:29:55;100485.29;;;22.58;40.55
35848;BME280;22332;51.954;20.118;2023-07-08T19:33:02;100488.44;;;22.50;40.95
35848;BME280;22332;51.954;20.118;2023-07-08T19:36:09;100488.40;;;22.41;41.25
35848;BME280;22332;51.954;20.118;2023-07-08T19:39:15;100490.25;;;22.40;41.57
35848;BME280;22332;51.954;20.118;2023-07-08T19:42:24;100489.73;;;22.33;41.67
35848;BME280;22332;51.954;20.118;2023-07-08T19:45:30;100491.41;;;22.28;41.89
35848;BME280;22332;51.954;20.118;2023-07-08T19:48:36;100487.59;;;22.20;42.38
35848;BME280;22332;51.954;20.118;2023-07-08T19:51:41;100487.79;;;22.26;42.93
35848;BME280;22332;51.954;20.118;2023-07-08T19:54:47;100488.79;;;22.36;43.19
35848;BME280;22332;51.954;20.118;2023-07-08T19:57:53;100485.83;;;22.43;43.13
35848;BME280;22332;51.954;20.118;2023-07-08T20:01:00;100485.92;;;22.39;43.69
35848;BME280;22332;51.954;20.118;2023-07-08T20:04:06;100488.09;;;22.39;43.48